sensor_id;sensor_type;location;lat;lon;timestamp;temperature;humidity
27940;DHT22;15275;51.716;14.324;2023-02-15T00:01:57;3.20;80.60
27940;DHT22;15275;51.716;14.324;2023-02-15T00:04:24;3.20;80.60
27940;DHT22;15275;51.716;14.324;2023-02-15T00:07:11;3.20;80.50
27940;DHT22;15275;51.716;14.324;2023-02-15T00:09:37;3.10;80.40
27940;DHT22;15275;51.716;14.324;2023-02-15T00:12:03;3.10;80.30
27940;DHT22;15275;51.716;14.324;2023-02-15T00:14:29;3.10;80.40
27940;DHT22;15275;51.716;14.324;2023-02-15T00:16:55;3.10;80.40
27940;DHT22;15275;51.716;14.324;2023-02-15T00:19:25;3.10;80.50
27940;DHT22;15275;51.716;14.324;2023-02-15T00:21:51;3.00;80.60
27940;DHT22;15275;51.716;14.324;2023-02-15T00:24:18;3.00;80.70
27940;DHT22;15275;51.716;14.324;2023-02-15T00:26:45;3.00;80.70
27940;DHT22;15275;51.716;14.324;2023-02-15T00:29:13;3.00;80.70
27940;DHT22;15275;51.716;14.324;2023-02-15T00:31:39;3.00;80.70
27940;DHT22;15275;51.716;14.324;2023-02-15T00:34:10;3.00;80.50
27940;DHT22;15275;51.716;14.324;2023-02-15T00:36:44;3.00;80.50
27940;DHT22;15275;51.716;14.324;2023-02-15T00:39:11;2.90;80.50
27940;DHT22;15275;51.716;14.324;2023-02-15T00:41:37;2.90;80.50
27940;DHT22;15275;51.716;14.324;2023-02-15T00:44:04;2.90;80.40
27940;DHT22;15275;51.716;14.324;2023-02-15T00:46:30;2.90;80.60
27940;DHT22;15275;51.716;14.324;2023-02-15T00:48:56;2.90;80.80
27940;DHT22;15275;51.716;14.324;2023-02-15T00:51:23;2.90;81.00
27940;DHT22;15275;51.716;14.324;2023-02-15T00:53:49;2.80;81.10
27940;DHT22;15275;51.716;14.324;2023-02-15T00:56:15;2.80;81.20
27940;DHT22;15275;51.716;14.324;2023-02-15T00:58:42;2.80;81.30
27940;DHT22;15275;51.716;14.324;2023-02-15T01:01:11;2.80;81.40
27940;DHT22;15275;51.716;14.324;2023-02-15T01:03:41;2.80;81.50
27940;DHT22;15275;51.716;14.324;2023-02-15T01:06:08;2.80;81.60
27940;DHT22;15275;51.716;14.324;2023-02-15T01:08:35;2.80;81.60
27940;DHT22;15275;51.716;14.324;2023-02-15T01:11:05;2.80;81.60
27940;DHT22;15275;51.716;14.324;2023-02-15T01:13:32;2.80;81.50
27940;DHT22;15275;51.716;14.324;2023-02-15T01:15:58;2.80;81.50
27940;DHT22;15275;51.716;14.324;2023-02-15T01:18:25;2.80;81.50
27940;DHT22;15275;51.716;14.324;2023-02-15T01:20:51;2.80;81.50
27940;DHT22;15275;51.716;14.324;2023-02-15T01:23:17;2.80;81.50
27940;DHT22;15275;51.716;14.324;2023-02-15T01:25:43;2.80;81.50
27940;DHT22;15275;51.716;14.324;2023-02-15T01:28:09;2.80;81.30
27940;DHT22;15275;51.716;14.324;2023-02-15T01:30:35;2.80;81.20
27940;DHT22;15275;51.716;14.324;2023-02-15T01:33:02;2.80;81.20
27940;DHT22;15275;51.716;14.324;2023-02-15T01:35:28;2.80;81.00
27940;DHT22;15275;51.716;14.324;2023-02-15T01:37:55;2.80;80.90
27940;DHT22;15275;51.716;14.324;2023-02-15T01:40:22;2.70;80.90
27940;DHT22;15275;51.716;14.324;2023-02-15T01:42:53;2.70;80.90
27940;DHT22;15275;51.716;14.324;2023-02-15T01:45:29;2.70;80.90
27940;DHT22;15275;51.716;14.324;2023-02-15T01:50:39;2.70;80.80
27940;DHT22;15275;51.716;14.324;2023-02-15T01:53:30;2.60;80.80
27940;DHT22;15275;51.716;14.324;2023-02-15T01:56:05;2.60;80.80
27940;DHT22;15275;51.716;14.324;2023-02-15T01:58:34;2.60;80.80
27940;DHT22;15275;51.716;14.324;2023-02-15T02:01:01;2.60;80.80
27940;DHT22;15275;51.716;14.324;2023-02-15T02:06:30;2.50;80.60
27940;DHT22;15275;51.716;14.324;2023-02-15T02:08:58;2.50;80.60
27940;DHT22;15275;51.716;14.324;2023-02-15T02:11:24;2.50;80.60
27940;DHT22;15275;51.716;14.324;2023-02-15T02:13:51;2.50;80.60
27940;DHT22;15275;51.716;14.324;2023-02-15T02:24:44;2.40;80.40
27940;DHT22;15275;51.716;14.324;2023-02-15T02:36:44;2.30;80.50
27940;DHT22;15275;51.716;14.324;2023-02-15T02:42:13;2.20;80.50
27940;DHT22;15275;51.716;14.324;2023-02-15T02:44:55;2.20;80.30
27940;DHT22;15275;51.716;14.324;2023-02-15T02:47:47;2.10;80.30
27940;DHT22;15275;51.716;14.324;2023-02-15T02:50:22;2.10;80.40
27940;DHT22;15275;51.716;14.324;2023-02-15T02:52:52;2.10;80.40
27940;DHT22;15275;51.716;14.324;2023-02-15T02:58:31;2.00;80.50
27940;DHT22;15275;51.716;14.324;2023-02-15T03:01:02;2.00;80.40
27940;DHT22;15275;51.716;14.324;2023-02-15T03:03:37;2.00;80.50
27940;DHT22;15275;51.716;14.324;2023-02-15T03:06:16;2.00;80.40
27940;DHT22;15275;51.716;14.324;2023-02-15T03:08:56;1.90;80.50
27940;DHT22;15275;51.716;14.324;2023-02-15T03:11:27;1.90;80.40
27940;DHT22;15275;51.716;14.324;2023-02-15T03:13:53;1.90;80.40
27940;DHT22;15275;51.716;14.324;2023-02-15T03:16:19;1.80;80.40
27940;DHT22;15275;51.716;14.324;2023-02-15T03:19:06;1.80;80.50
27940;DHT22;15275;51.716;14.324;2023-02-15T03:21:48;1.80;80.70
27940;DHT22;15275;51.716;14.324;2023-02-15T03:24:26;1.80;80.60
27940;DHT22;15275;51.716;14.324;2023-02-15T03:26:58;1.80;80.50
27940;DHT22;15275;51.716;14.324;2023-02-15T03:29:27;1.80;80.40
27940;DHT22;15275;51.716;14.324;2023-02-15T03:32:03;1.80;80.40
27940;DHT22;15275;51.716;14.324;2023-02-15T03:34:32;1.80;80.40
27940;DHT22;15275;51.716;14.324;2023-02-15T03:37:26;1.70;80.30
27940;DHT22;15275;51.716;14.324;2023-02-15T03:40:26;1.70;80.40
27940;DHT22;15275;51.716;14.324;2023-02-15T03:48:43;1.70;80.20
27940;DHT22;15275;51.716;14.324;2023-02-15T03:51:17;1.60;80.30
27940;DHT22;15275;51.716;14.324;2023-02-15T03:54:04;1.60;80.30
27940;DHT22;15275;51.716;14.324;2023-02-15T03:56:35;1.60;80.40
27940;DHT22;15275;51.716;14.324;2023-02-15T03:59:03;1.60;80.50
27940;DHT22;15275;51.716;14.324;2023-02-15T04:01:59;1.60;80.50
27940;DHT22;15275;51.716;14.324;2023-02-15T04:04:54;1.60;80.50
27940;DHT22;15275;51.716;14.324;2023-02-15T04:07:20;1.50;80.50
27940;DHT22;15275;51.716;14.324;2023-02-15T04:09:46;1.50;80.50
27940;DHT22;15275;51.716;14.324;2023-02-15T04:12:30;1.50;80.50
27940;DHT22;15275;51.716;14.324;2023-02-15T04:14:56;1.50;80.30
27940;DHT22;15275;51.716;14.324;2023-02-15T04:17:40;1.50;80.40
27940;DHT22;15275;51.716;14.324;2023-02-15T04:20:08;1.50;80.20
27940;DHT22;15275;51.716;14.324;2023-02-15T04:22:52;1.40;80.30
27940;DHT22;15275;51.716;14.324;2023-02-15T04:25:36;1.40;80.30
27940;DHT22;15275;51.716;14.324;2023-02-15T04:28:02;1.40;80.40
27940;DHT22;15275;51.716;14.324;2023-02-15T04:30:28;1.40;80.40
27940;DHT22;15275;51.716;14.324;2023-02-15T04:32:54;1.40;80.30
27940;DHT22;15275;51.716;14.324;2023-02-15T04:35:21;1.30;80.20
27940;DHT22;15275;51.716;14.324;2023-02-15T04:37:47;1.30;80.20
27940;DHT22;15275;51.716;14.324;2023-02-15T04:40:14;1.30;80.20
27940;DHT22;15275;51.716;14.324;2023-02-15T04:42:40;1.30;80.30
27940;DHT22;15275;51.716;14.324;2023-02-15T04:45:07;1.30;80.30
27940;DHT22;15275;51.716;14.324;2023-02-15T04:47:33;1.30;80.30
27940;DHT22;15275;51.716;14.324;2023-02-15T04:49:59;1.20;80.40
27940;DHT22;15275;51.716;14.324;2023-02-15T04:52:25;1.20;80.40
27940;DHT22;15275;51.716;14.324;2023-02-15T04:54:51;1.20;80.40
27940;DHT22;15275;51.716;14.324;2023-02-15T04:57:17;1.20;80.40
27940;DHT22;15275;51.716;14.324;2023-02-15T04:59:43;1.20;80.40
27940;DHT22;15275;51.716;14.324;2023-02-15T05:02:08;1.20;80.30
27940;DHT22;15275;51.716;14.324;2023-02-15T05:04:34;1.20;80.30
27940;DHT22;15275;51.716;14.324;2023-02-15T05:07:00;1.20;80.20
27940;DHT22;15275;51.716;14.324;2023-02-15T05:09:26;1.20;80.10
27940;DHT22;15275;51.716;14.324;2023-02-15T05:11:52;1.20;80.10
27940;DHT22;15275;51.716;14.324;2023-02-15T05:14:18;1.10;80.20
27940;DHT22;15275;51.716;14.324;2023-02-15T05:16:44;1.10;80.30
27940;DHT22;15275;51.716;14.324;2023-02-15T05:19:09;1.10;80.30
27940;DHT22;15275;51.716;14.324;2023-02-15T05:21:35;1.10;80.30
27940;DHT22;15275;51.716;14.324;2023-02-15T05:24:01;1.10;80.30
27940;DHT22;15275;51.716;14.324;2023-02-15T05:26:47;1.10;80.30
27940;DHT22;15275;51.716;14.324;2023-02-15T05:29:30;1.10;80.20
27940;DHT22;15275;51.716;14.324;2023-02-15T05:31:56;1.10;80.10
27940;DHT22;15275;51.716;14.324;2023-02-15T05:34:22;1.10;80.20
27940;DHT22;15275;51.716;14.324;2023-02-15T05:36:48;1.10;80.10
27940;DHT22;15275;51.716;14.324;2023-02-15T05:39:14;1.10;80.00
27940;DHT22;15275;51.716;14.324;2023-02-15T05:41:39;1.00;80.00
27940;DHT22;15275;51.716;14.324;2023-02-15T05:44:05;1.00;80.00
27940;DHT22;15275;51.716;14.324;2023-02-15T05:46:31;1.00;80.00
27940;DHT22;15275;51.716;14.324;2023-02-15T05:48:57;1.00;80.00
27940;DHT22;15275;51.716;14.324;2023-02-15T05:51:22;1.00;80.00
27940;DHT22;15275;51.716;14.324;2023-02-15T05:53:48;1.00;80.00
27940;DHT22;15275;51.716;14.324;2023-02-15T05:56:14;1.00;80.10
27940;DHT22;15275;51.716;14.324;2023-02-15T05:58:41;1.00;80.10
27940;DHT22;15275;51.716;14.324;2023-02-15T06:01:15;0.90;80.20
27940;DHT22;15275;51.716;14.324;2023-02-15T06:03:43;0.90;80.30
27940;DHT22;15275;51.716;14.324;2023-02-15T06:06:09;0.90;80.30
27940;DHT22;15275;51.716;14.324;2023-02-15T06:08:36;0.90;80.20
27940;DHT22;15275;51.716;14.324;2023-02-15T06:11:03;0.90;80.10
27940;DHT22;15275;51.716;14.324;2023-02-15T06:13:30;0.90;80.10
27940;DHT22;15275;51.716;14.324;2023-02-15T06:15:56;0.90;80.00
27940;DHT22;15275;51.716;14.324;2023-02-15T06:18:22;0.90;80.00
27940;DHT22;15275;51.716;14.324;2023-02-15T06:20:48;0.90;80.00
27940;DHT22;15275;51.716;14.324;2023-02-15T06:23:15;0.90;80.10
27940;DHT22;15275;51.716;14.324;2023-02-15T06:25:41;0.90;80.10
27940;DHT22;15275;51.716;14.324;2023-02-15T06:28:07;0.90;80.10
27940;DHT22;15275;51.716;14.324;2023-02-15T06:30:33;0.90;80.20
27940;DHT22;15275;51.716;14.324;2023-02-15T06:32:59;0.90;80.30
27940;DHT22;15275;51.716;14.324;2023-02-15T06:35:24;0.90;80.40
27940;DHT22;15275;51.716;14.324;2023-02-15T06:37:50;0.90;80.40
27940;DHT22;15275;51.716;14.324;2023-02-15T06:40:16;0.90;80.40
27940;DHT22;15275;51.716;14.324;2023-02-15T06:42:42;0.90;80.50
27940;DHT22;15275;51.716;14.324;2023-02-15T06:45:09;0.90;80.70
27940;DHT22;15275;51.716;14.324;2023-02-15T06:47:35;0.90;80.80
27940;DHT22;15275;51.716;14.324;2023-02-15T06:50:05;1.00;80.90
27940;DHT22;15275;51.716;14.324;2023-02-15T06:52:32;1.00;80.90
27940;DHT22;15275;51.716;14.324;2023-02-15T06:54:58;1.00;81.00
27940;DHT22;15275;51.716;14.324;2023-02-15T06:57:24;1.00;81.00
27940;DHT22;15275;51.716;14.324;2023-02-15T06:59:50;1.10;81.10
27940;DHT22;15275;51.716;14.324;2023-02-15T07:02:16;1.10;81.30
27940;DHT22;15275;51.716;14.324;2023-02-15T07:04:42;1.10;81.40
27940;DHT22;15275;51.716;14.324;2023-02-15T07:07:09;1.20;81.40
27940;DHT22;15275;51.716;14.324;2023-02-15T07:09:37;1.20;81.60
27940;DHT22;15275;51.716;14.324;2023-02-15T07:14:41;1.30;81.60
27940;DHT22;15275;51.716;14.324;2023-02-15T07:17:07;1.40;81.60
27940;DHT22;15275;51.716;14.324;2023-02-15T07:19:33;1.40;81.70
27940;DHT22;15275;51.716;14.324;2023-02-15T07:21:59;1.50;81.90
27940;DHT22;15275;51.716;14.324;2023-02-15T07:24:26;1.50;82.00
27940;DHT22;15275;51.716;14.324;2023-02-15T07:26:51;1.60;82.20
27940;DHT22;15275;51.716;14.324;2023-02-15T07:29:17;1.70;82.40
27940;DHT22;15275;51.716;14.324;2023-02-15T07:31:43;1.70;82.70
27940;DHT22;15275;51.716;14.324;2023-02-15T07:34:11;1.80;83.00
27940;DHT22;15275;51.716;14.324;2023-02-15T07:36:37;2.00;83.20
27940;DHT22;15275;51.716;14.324;2023-02-15T07:39:03;2.00;83.40
27940;DHT22;15275;51.716;14.324;2023-02-15T07:41:29;2.20;83.50
27940;DHT22;15275;51.716;14.324;2023-02-15T07:43:58;2.30;83.70
27940;DHT22;15275;51.716;14.324;2023-02-15T07:46:24;2.40;83.90
27940;DHT22;15275;51.716;14.324;2023-02-15T07:48:50;2.50;83.90
27940;DHT22;15275;51.716;14.324;2023-02-15T07:51:15;2.60;84.00
27940;DHT22;15275;51.716;14.324;2023-02-15T07:53:42;2.70;84.10
27940;DHT22;15275;51.716;14.324;2023-02-15T07:56:11;2.80;84.20
27940;DHT22;15275;51.716;14.324;2023-02-15T07:58:38;3.00;84.30
27940;DHT22;15275;51.716;14.324;2023-02-15T08:01:18;3.10;84.30
27940;DHT22;15275;51.716;14.324;2023-02-15T08:03:45;3.20;84.40
27940;DHT22;15275;51.716;14.324;2023-02-15T08:06:10;3.30;84.60
27940;DHT22;15275;51.716;14.324;2023-02-15T08:08:39;3.50;84.70
27940;DHT22;15275;51.716;14.324;2023-02-15T08:11:15;3.60;84.90
27940;DHT22;15275;51.716;14.324;2023-02-15T08:16:55;3.90;85.00
27940;DHT22;15275;51.716;14.324;2023-02-15T08:19:30;4.00;85.20
27940;DHT22;15275;51.716;14.324;2023-02-15T08:22:05;4.20;85.20
27940;DHT22;15275;51.716;14.324;2023-02-15T08:24:35;4.30;85.20
27940;DHT22;15275;51.716;14.324;2023-02-15T08:27:09;4.40;85.10
27940;DHT22;15275;51.716;14.324;2023-02-15T08:29:37;4.60;85.10
27940;DHT22;15275;51.716;14.324;2023-02-15T08:32:07;4.70;85.10
27940;DHT22;15275;51.716;14.324;2023-02-15T08:34:37;4.80;85.10
27940;DHT22;15275;51.716;14.324;2023-02-15T08:37:05;4.90;85.10
27940;DHT22;15275;51.716;14.324;2023-02-15T08:39:31;5.10;85.20
27940;DHT22;15275;51.716;14.324;2023-02-15T08:41:57;5.20;85.00
27940;DHT22;15275;51.716;14.324;2023-02-15T08:44:23;5.30;85.00
27940;DHT22;15275;51.716;14.324;2023-02-15T08:46:50;5.40;84.90
27940;DHT22;15275;51.716;14.324;2023-02-15T08:49:21;5.50;84.70
27940;DHT22;15275;51.716;14.324;2023-02-15T08:51:48;5.60;84.70
27940;DHT22;15275;51.716;14.324;2023-02-15T08:54:17;5.70;84.50
27940;DHT22;15275;51.716;14.324;2023-02-15T08:56:44;5.90;84.50
27940;DHT22;15275;51.716;14.324;2023-02-15T08:59:14;5.90;84.30
27940;DHT22;15275;51.716;14.324;2023-02-15T09:01:44;6.10;84.20
27940;DHT22;15275;51.716;14.324;2023-02-15T09:04:11;6.20;84.20
27940;DHT22;15275;51.716;14.324;2023-02-15T09:06:39;6.30;84.20
27940;DHT22;15275;51.716;14.324;2023-02-15T09:09:07;6.40;84.10
27940;DHT22;15275;51.716;14.324;2023-02-15T09:11:36;6.50;84.20
27940;DHT22;15275;51.716;14.324;2023-02-15T09:14:06;6.60;84.10
27940;DHT22;15275;51.716;14.324;2023-02-15T09:16:39;6.70;83.90
27940;DHT22;15275;51.716;14.324;2023-02-15T09:19:06;6.80;83.80
27940;DHT22;15275;51.716;14.324;2023-02-15T09:21:36;6.90;83.50
27940;DHT22;15275;51.716;14.324;2023-02-15T09:24:05;7.00;83.50
27940;DHT22;15275;51.716;14.324;2023-02-15T09:26:35;7.10;83.30
27940;DHT22;15275;51.716;14.324;2023-02-15T09:29:03;7.20;83.30
27940;DHT22;15275;51.716;14.324;2023-02-15T09:31:37;7.30;83.30
27940;DHT22;15275;51.716;14.324;2023-02-15T09:34:06;7.40;83.20
27940;DHT22;15275;51.716;14.324;2023-02-15T09:36:37;7.50;83.10
27940;DHT22;15275;51.716;14.324;2023-02-15T09:48:39;7.90;82.60
27940;DHT22;15275;51.716;14.324;2023-02-15T09:51:19;8.10;81.80
27940;DHT22;15275;51.716;14.324;2023-02-15T09:54:12;8.20;82.40
27940;DHT22;15275;51.716;14.324;2023-02-15T09:56:57;8.30;82.30
27940;DHT22;15275;51.716;14.324;2023-02-15T09:59:43;8.40;82.20
27940;DHT22;15275;51.716;14.324;2023-02-15T10:02:23;8.50;82.20
27940;DHT22;15275;51.716;14.324;2023-02-15T10:11:14;8.80;81.60
27940;DHT22;15275;51.716;14.324;2023-02-15T10:26:45;9.40;80.60
27940;DHT22;15275;51.716;14.324;2023-02-15T10:29:26;9.60;80.80
27940;DHT22;15275;51.716;14.324;2023-02-15T10:34:53;9.80;80.60
27940;DHT22;15275;51.716;14.324;2023-02-15T10:37:46;9.90;80.70
27940;DHT22;15275;51.716;14.324;2023-02-15T10:56:35;10.70;79.60
27940;DHT22;15275;51.716;14.324;2023-02-15T10:59:50;10.80;78.40
27940;DHT22;15275;51.716;14.324;2023-02-15T11:08:21;11.10;77.40
27940;DHT22;15275;51.716;14.324;2023-02-15T11:11:02;11.20;79.00
27940;DHT22;15275;51.716;14.324;2023-02-15T11:13:34;11.30;78.30
27940;DHT22;15275;51.716;14.324;2023-02-15T11:18:50;11.50;78.40
27940;DHT22;15275;51.716;14.324;2023-02-15T11:23:47;11.70;78.50
27940;DHT22;15275;51.716;14.324;2023-02-15T11:26:28;11.80;77.90
27940;DHT22;15275;51.716;14.324;2023-02-15T11:31:54;11.90;77.50
27940;DHT22;15275;51.716;14.324;2023-02-15T11:34:53;12.00;77.60
27940;DHT22;15275;51.716;14.324;2023-02-15T11:37:20;12.10;76.60
27940;DHT22;15275;51.716;14.324;2023-02-15T11:40:01;12.20;77.00
27940;DHT22;15275;51.716;14.324;2023-02-15T11:42:30;12.40;76.90
27940;DHT22;15275;51.716;14.324;2023-02-15T11:45:02;12.40;76.60
27940;DHT22;15275;51.716;14.324;2023-02-15T11:47:33;12.50;76.30
27940;DHT22;15275;51.716;14.324;2023-02-15T11:49:59;12.60;76.30
27940;DHT22;15275;51.716;14.324;2023-02-15T11:52:25;12.70;75.90
27940;DHT22;15275;51.716;14.324;2023-02-15T11:54:52;12.80;75.90
27940;DHT22;15275;51.716;14.324;2023-02-15T12:00:01;12.90;75.10
27940;DHT22;15275;51.716;14.324;2023-02-15T12:02:31;13.00;74.50
27940;DHT22;15275;51.716;14.324;2023-02-15T12:05:01;13.00;75.00
27940;DHT22;15275;51.716;14.324;2023-02-15T12:07:42;13.10;74.70
27940;DHT22;15275;51.716;14.324;2023-02-15T12:10:31;13.20;74.50
27940;DHT22;15275;51.716;14.324;2023-02-15T12:13:18;13.20;73.30
27940;DHT22;15275;51.716;14.324;2023-02-15T12:15:47;13.30;72.20
27940;DHT22;15275;51.716;14.324;2023-02-15T12:18:38;13.40;74.30
27940;DHT22;15275;51.716;14.324;2023-02-15T12:21:12;13.40;72.20
27940;DHT22;15275;51.716;14.324;2023-02-15T12:23:48;13.50;73.70
27940;DHT22;15275;51.716;14.324;2023-02-15T12:26:30;13.50;73.00
27940;DHT22;15275;51.716;14.324;2023-02-15T12:29:15;13.60;72.00
27940;DHT22;15275;51.716;14.324;2023-02-15T12:31:47;13.60;72.10
27940;DHT22;15275;51.716;14.324;2023-02-15T12:34:31;13.60;73.00
27940;DHT22;15275;51.716;14.324;2023-02-15T12:37:15;13.70;72.00
27940;DHT22;15275;51.716;14.324;2023-02-15T12:39:58;13.70;72.40
27940;DHT22;15275;51.716;14.324;2023-02-15T12:42:26;13.70;71.80
27940;DHT22;15275;51.716;14.324;2023-02-15T12:45:01;13.70;72.70
27940;DHT22;15275;51.716;14.324;2023-02-15T12:47:30;13.80;72.20
27940;DHT22;15275;51.716;14.324;2023-02-15T12:50:13;13.80;72.50
27940;DHT22;15275;51.716;14.324;2023-02-15T12:52:47;13.80;70.80
27940;DHT22;15275;51.716;14.324;2023-02-15T12:55:21;13.80;72.10
27940;DHT22;15275;51.716;14.324;2023-02-15T12:57:47;13.90;72.30
27940;DHT22;15275;51.716;14.324;2023-02-15T13:02:47;14.00;72.60
27940;DHT22;15275;51.716;14.324;2023-02-15T13:07:54;14.10;71.90
27940;DHT22;15275;51.716;14.324;2023-02-15T13:10:28;14.10;71.20
27940;DHT22;15275;51.716;14.324;2023-02-15T13:12:57;14.10;71.50
27940;DHT22;15275;51.716;14.324;2023-02-15T13:15:45;14.10;72.00
27940;DHT22;15275;51.716;14.324;2023-02-15T13:18:17;14.20;69.60
27940;DHT22;15275;51.716;14.324;2023-02-15T13:20:55;14.20;71.30
27940;DHT22;15275;51.716;14.324;2023-02-15T13:23:27;14.20;71.60
27940;DHT22;15275;51.716;14.324;2023-02-15T13:25:56;14.30;70.70
27940;DHT22;15275;51.716;14.324;2023-02-15T13:28:37;14.30;71.00
27940;DHT22;15275;51.716;14.324;2023-02-15T13:31:12;14.40;70.80
27940;DHT22;15275;51.716;14.324;2023-02-15T13:33:44;14.40;70.20
27940;DHT22;15275;51.716;14.324;2023-02-15T13:41:32;14.50;70.20
27940;DHT22;15275;51.716;14.324;2023-02-15T14:11:30;14.60;68.60
27940;DHT22;15275;51.716;14.324;2023-02-15T14:20:27;14.50;67.80
27940;DHT22;15275;51.716;14.324;2023-02-15T14:23:07;14.50;67.40
27940;DHT22;15275;51.716;14.324;2023-02-15T14:25:47;14.50;68.10
27940;DHT22;15275;51.716;14.324;2023-02-15T14:28:27;14.50;68.80
27940;DHT22;15275;51.716;14.324;2023-02-15T14:30:56;14.50;68.10
27940;DHT22;15275;51.716;14.324;2023-02-15T14:33:52;14.40;69.00
27940;DHT22;15275;51.716;14.324;2023-02-15T14:36:20;14.40;66.70
27940;DHT22;15275;51.716;14.324;2023-02-15T14:42:43;14.40;66.90
27940;DHT22;15275;51.716;14.324;2023-02-15T14:45:29;14.30;67.10
27940;DHT22;15275;51.716;14.324;2023-02-15T14:48:17;14.30;68.60
27940;DHT22;15275;51.716;14.324;2023-02-15T14:50:59;14.30;68.20
27940;DHT22;15275;51.716;14.324;2023-02-15T14:53:38;14.20;68.90
27940;DHT22;15275;51.716;14.324;2023-02-15T14:56:16;14.20;67.80
27940;DHT22;15275;51.716;14.324;2023-02-15T15:01:15;14.10;68.20
27940;DHT22;15275;51.716;14.324;2023-02-15T15:03:52;14.00;68.90
27940;DHT22;15275;51.716;14.324;2023-02-15T15:06:28;14.00;68.00
27940;DHT22;15275;51.716;14.324;2023-02-15T15:09:24;13.90;68.50
27940;DHT22;15275;51.716;14.324;2023-02-15T15:11:53;13.90;67.00
27940;DHT22;15275;51.716;14.324;2023-02-15T15:17:00;13.80;67.80
27940;DHT22;15275;51.716;14.324;2023-02-15T15:22:20;13.70;67.90
27940;DHT22;15275;51.716;14.324;2023-02-15T15:27:55;13.60;68.80
27940;DHT22;15275;51.716;14.324;2023-02-15T15:50:24;13.00;68.70
27940;DHT22;15275;51.716;14.324;2023-02-15T15:52:53;12.80;69.40
27940;DHT22;15275;51.716;14.324;2023-02-15T15:55:23;12.80;69.30
27940;DHT22;15275;51.716;14.324;2023-02-15T15:57:57;12.70;69.30
27940;DHT22;15275;51.716;14.324;2023-02-15T16:00:54;12.60;69.10
27940;DHT22;15275;51.716;14.324;2023-02-15T16:03:26;12.50;68.80
27940;DHT22;15275;51.716;14.324;2023-02-15T16:05:54;12.40;69.50
27940;DHT22;15275;51.716;14.324;2023-02-15T16:08:36;12.30;69.40
27940;DHT22;15275;51.716;14.324;2023-02-15T16:11:24;12.20;68.70
27940;DHT22;15275;51.716;14.324;2023-02-15T16:13:52;12.10;68.40
27940;DHT22;15275;51.716;14.324;2023-02-15T16:16:24;12.00;69.50
27940;DHT22;15275;51.716;14.324;2023-02-15T16:18:57;11.90;69.40
27940;DHT22;15275;51.716;14.324;2023-02-15T16:21:31;11.70;69.80
27940;DHT22;15275;51.716;14.324;2023-02-15T16:27:11;11.50;69.60
27940;DHT22;15275;51.716;14.324;2023-02-15T16:29:41;11.40;70.20
27940;DHT22;15275;51.716;14.324;2023-02-15T16:32:23;11.30;70.50
27940;DHT22;15275;51.716;14.324;2023-02-15T16:35:01;11.10;70.20
27940;DHT22;15275;51.716;14.324;2023-02-15T16:37:37;11.00;70.40
27940;DHT22;15275;51.716;14.324;2023-02-15T16:40:03;10.90;70.40
27940;DHT22;15275;51.716;14.324;2023-02-15T16:42:30;10.80;70.80
27940;DHT22;15275;51.716;14.324;2023-02-15T16:45:08;10.70;70.80
27940;DHT22;15275;51.716;14.324;2023-02-15T16:47:43;10.60;70.60
27940;DHT22;15275;51.716;14.324;2023-02-15T16:50:33;10.50;71.00
27940;DHT22;15275;51.716;14.324;2023-02-15T16:53:01;10.40;70.90
27940;DHT22;15275;51.716;14.324;2023-02-15T16:55:33;10.20;71.30
27940;DHT22;15275;51.716;14.324;2023-02-15T16:58:02;10.10;71.30
27940;DHT22;15275;51.716;14.324;2023-02-15T17:00:39;10.10;70.70
27940;DHT22;15275;51.716;14.324;2023-02-15T17:03:21;10.00;71.40
27940;DHT22;15275;51.716;14.324;2023-02-15T17:05:53;9.80;71.50
27940;DHT22;15275;51.716;14.324;2023-02-15T17:08:33;9.70;71.90
27940;DHT22;15275;51.716;14.324;2023-02-15T17:11:10;9.60;72.00
27940;DHT22;15275;51.716;14.324;2023-02-15T17:13:36;9.50;72.20
27940;DHT22;15275;51.716;14.324;2023-02-15T17:18:45;9.30;72.50
27940;DHT22;15275;51.716;14.324;2023-02-15T17:21:17;9.30;72.30
27940;DHT22;15275;51.716;14.324;2023-02-15T17:23:47;9.20;72.70
27940;DHT22;15275;51.716;14.324;2023-02-15T17:26:24;9.10;72.80
27940;DHT22;15275;51.716;14.324;2023-02-15T17:29:00;9.00;73.00
27940;DHT22;15275;51.716;14.324;2023-02-15T17:31:32;8.90;73.10
27940;DHT22;15275;51.716;14.324;2023-02-15T17:33:59;8.90;73.20
27940;DHT22;15275;51.716;14.324;2023-02-15T17:36:28;8.80;73.30
27940;DHT22;15275;51.716;14.324;2023-02-15T17:41:31;8.70;73.50
27940;DHT22;15275;51.716;14.324;2023-02-15T17:44:04;8.60;73.60
27940;DHT22;15275;51.716;14.324;2023-02-15T17:46:35;8.50;73.60
27940;DHT22;15275;51.716;14.324;2023-02-15T17:49:01;8.50;73.70
27940;DHT22;15275;51.716;14.324;2023-02-15T17:51:28;8.40;73.70
27940;DHT22;15275;51.716;14.324;2023-02-15T17:53:54;8.40;73.90
27940;DHT22;15275;51.716;14.324;2023-02-15T17:56:38;8.30;73.90
27940;DHT22;15275;51.716;14.324;2023-02-15T17:59:05;8.30;73.90
27940;DHT22;15275;51.716;14.324;2023-02-15T18:01:42;8.20;73.90
27940;DHT22;15275;51.716;14.324;2023-02-15T18:04:31;8.10;74.00
27940;DHT22;15275;51.716;14.324;2023-02-15T18:07:18;8.10;74.10
27940;DHT22;15275;51.716;14.324;2023-02-15T18:10:17;8.00;74.20
27940;DHT22;15275;51.716;14.324;2023-02-15T18:13:02;8.00;73.90
27940;DHT22;15275;51.716;14.324;2023-02-15T18:15:28;7.90;74.20
27940;DHT22;15275;51.716;14.324;2023-02-15T18:17:54;7.80;74.30
27940;DHT22;15275;51.716;14.324;2023-02-15T18:20:33;7.80;74.30
27940;DHT22;15275;51.716;14.324;2023-02-15T18:23:01;7.70;74.30
27940;DHT22;15275;51.716;14.324;2023-02-15T18:25:27;7.70;74.30
27940;DHT22;15275;51.716;14.324;2023-02-15T18:27:54;7.60;74.30
27940;DHT22;15275;51.716;14.324;2023-02-15T18:30:22;7.60;74.40
27940;DHT22;15275;51.716;14.324;2023-02-15T18:32:52;7.50;74.40
27940;DHT22;15275;51.716;14.324;2023-02-15T18:35:22;7.50;74.40
27940;DHT22;15275;51.716;14.324;2023-02-15T18:37:50;7.40;74.40
27940;DHT22;15275;51.716;14.324;2023-02-15T18:40:19;7.40;74.30
27940;DHT22;15275;51.716;14.324;2023-02-15T18:42:46;7.30;74.40
27940;DHT22;15275;51.716;14.324;2023-02-15T18:47:50;7.20;74.60
27940;DHT22;15275;51.716;14.324;2023-02-15T18:50:18;7.10;74.60
27940;DHT22;15275;51.716;14.324;2023-02-15T18:52:47;7.10;74.60
27940;DHT22;15275;51.716;14.324;2023-02-15T18:55:21;7.00;74.70
27940;DHT22;15275;51.716;14.324;2023-02-15T18:57:50;7.00;74.70
27940;DHT22;15275;51.716;14.324;2023-02-15T19:00:23;6.90;74.70
27940;DHT22;15275;51.716;14.324;2023-02-15T19:02:57;6.90;74.70
27940;DHT22;15275;51.716;14.324;2023-02-15T19:05:24;6.80;74.80
27940;DHT22;15275;51.716;14.324;2023-02-15T19:07:54;6.70;74.80
27940;DHT22;15275;51.716;14.324;2023-02-15T19:10:23;6.70;74.80
27940;DHT22;15275;51.716;14.324;2023-02-15T19:12:50;6.70;74.80